createdAt,value
2019-04-29T00:00:29.582Z,0.70
2019-04-29T00:01:29.771Z,0.50
2019-04-29T00:02:29.524Z,0.50
2019-04-29T00:03:29.509Z,0.40
2019-04-29T00:04:29.454Z,0.60
2019-04-29T00:05:29.445Z,0.80
2019-04-29T00:06:29.381Z,0.40
2019-04-29T00:07:29.351Z,0.70
2019-04-29T00:08:29.337Z,0.60
2019-04-29T00:09:30.918Z,0.50
2019-04-29T00:10:29.242Z,0.70
2019-04-29T00:11:29.238Z,0.50
2019-04-29T00:12:29.173Z,0.60
2019-04-29T00:13:29.292Z,0.70
2019-04-29T00:14:29.133Z,0.50
2019-04-29T00:15:29.121Z,0.70
2019-04-29T00:16:29.083Z,0.70
2019-04-29T00:17:29.053Z,0.40
2019-04-29T00:19:28.972Z,0.00
2019-04-29T00:20:28.960Z,0.50
2019-04-29T00:21:28.872Z,0.50
2019-04-29T00:22:28.881Z,0.50
2019-04-29T00:23:28.852Z,0.70
2019-04-29T00:24:28.857Z,0.70
2019-04-29T00:25:28.795Z,0.50
2019-04-29T00:26:28.742Z,0.70
2019-04-29T00:27:28.687Z,0.60
2019-04-29T00:28:28.694Z,0.50
2019-04-29T00:29:28.674Z,0.80
2019-04-29T00:30:28.623Z,0.60
2019-04-29T00:31:28.572Z,0.40
2019-04-29T00:32:28.543Z,0.80
2019-04-29T00:33:28.672Z,0.40
2019-04-29T00:34:28.497Z,0.60
2019-04-29T00:35:28.480Z,0.70
2019-04-29T00:36:28.467Z,0.50
2019-04-29T00:37:28.395Z,0.70
2019-04-29T00:38:28.405Z,0.60
2019-04-29T00:39:28.328Z,0.60
2019-04-29T00:40:28.320Z,0.50
2019-04-29T00:41:28.253Z,0.50
2019-04-29T00:42:28.216Z,0.70
2019-04-29T00:43:28.197Z,0.50
2019-04-29T00:44:28.170Z,0.40
2019-04-29T00:45:28.136Z,0.50
2019-04-29T00:46:28.124Z,0.60
2019-04-29T00:47:28.086Z,0.50
2019-04-29T00:48:28.081Z,0.70
2019-04-29T00:49:27.995Z,0.50
2019-04-29T00:50:27.980Z,0.50
2019-04-29T00:51:27.931Z,0.70
2019-04-29T00:52:27.904Z,0.60
2019-04-29T00:53:27.904Z,0.70
2019-04-29T00:54:27.883Z,0.70
2019-04-29T00:55:27.844Z,0.50
2019-04-29T00:56:27.818Z,0.70
2019-04-29T00:57:27.737Z,0.70
2019-04-29T00:58:27.700Z,0.40
2019-04-29T00:59:27.674Z,0.70
2019-04-29T01:00:27.881Z,0.50
2019-04-29T01:01:27.642Z,0.40
2019-04-29T01:02:27.616Z,0.70
2019-04-29T01:03:27.559Z,0.50
2019-04-29T01:04:27.506Z,0.70
2019-04-29T01:05:27.518Z,0.70
2019-04-29T01:06:27.576Z,0.50
2019-04-29T01:07:27.422Z,0.70
2019-04-29T01:08:27.397Z,0.60
2019-04-29T01:09:27.386Z,0.60
2019-04-29T01:10:27.355Z,0.80
2019-04-29T01:12:27.296Z,0.00
2019-04-29T01:13:27.239Z,0.80
2019-04-29T01:14:27.337Z,0.40
2019-04-29T01:15:27.171Z,0.60
2019-04-29T01:16:27.109Z,0.80
2019-04-29T01:17:27.137Z,0.40
2019-04-29T01:18:27.287Z,0.50
2019-04-29T01:19:27.041Z,0.80
2019-04-29T01:20:26.998Z,0.50
2019-04-29T01:21:26.976Z,0.80
2019-04-29T01:22:26.921Z,0.60
2019-04-29T01:23:26.911Z,0.70
2019-04-29T01:24:26.874Z,0.70
2019-04-29T01:25:26.859Z,0.50
2019-04-29T01:26:26.801Z,0.70
2019-04-29T01:27:26.800Z,0.70
2019-04-29T01:28:26.819Z,0.60
2019-04-29T01:29:26.695Z,0.50
2019-04-29T01:30:26.649Z,0.60
2019-04-29T01:31:26.654Z,0.50
2019-04-29T01:35:26.542Z,0.80
2019-04-29T01:36:59.696Z,0.60
2019-04-29T01:37:26.421Z,0.00
2019-04-29T01:38:26.560Z,0.80
2019-04-29T01:39:59.611Z,0.60
2019-04-29T01:40:26.493Z,0.00
2019-04-29T01:41:26.322Z,0.80
2019-04-29T01:42:26.327Z,0.40
2019-04-29T01:43:26.264Z,0.80
2019-04-29T01:45:26.185Z,0.00
2019-04-29T01:46:26.189Z,0.50
2019-04-29T01:48:26.117Z,0.70
2019-04-29T01:49:30.225Z,0.80
2019-04-29T01:50:26.124Z,0.50
2019-04-29T01:51:30.044Z,0.70
2019-04-29T01:52:30.937Z,0.60
2019-04-29T01:53:25.960Z,0.50
2019-04-29T01:54:25.881Z,0.70
2019-04-29T01:55:29.797Z,0.60
2019-04-29T01:56:25.832Z,0.60
2019-04-29T01:57:25.829Z,0.70
2019-04-29T01:58:25.775Z,0.60
2019-04-29T02:00:29.414Z,0.00
2019-04-29T02:01:25.704Z,0.50
2019-04-29T02:02:25.650Z,0.60
2019-04-29T02:03:25.604Z,0.50
2019-04-29T02:04:25.587Z,0.50
2019-04-29T02:05:25.538Z,0.70
2019-04-29T02:06:25.547Z,0.50
2019-04-29T02:07:25.528Z,0.50
2019-04-29T02:08:25.436Z,0.70
2019-04-29T02:09:25.400Z,0.40
2019-04-29T02:10:58.649Z,0.50
2019-04-29T02:11:25.377Z,0.00
2019-04-29T02:12:25.351Z,0.40
2019-04-29T02:13:25.272Z,0.60
2019-04-29T02:14:25.252Z,0.70
2019-04-29T02:15:25.214Z,0.50
2019-04-29T02:16:25.205Z,0.70
2019-04-29T02:17:25.133Z,0.50
2019-04-29T02:18:25.136Z,0.40
2019-04-29T02:19:25.106Z,0.70
2019-04-29T02:20:25.383Z,0.70
2019-04-29T02:21:25.025Z,0.50
2019-04-29T02:22:25.021Z,0.70
2019-04-29T02:23:24.981Z,0.60
2019-04-29T02:24:24.936Z,0.60
2019-04-29T02:25:24.913Z,0.70
2019-04-29T02:26:24.876Z,0.60
2019-04-29T02:27:47.527Z,0.60
2019-04-29T02:28:24.788Z,0.00
2019-04-29T02:29:24.776Z,0.60
2019-04-29T02:30:24.744Z,0.50
2019-04-29T02:31:24.702Z,0.70
2019-04-29T02:32:24.688Z,0.60
2019-04-29T02:33:29.575Z,0.50
2019-04-29T02:34:24.639Z,0.70
2019-04-29T02:35:24.722Z,0.40
2019-04-29T02:36:29.998Z,0.70
2019-04-29T02:37:24.566Z,0.40
2019-04-29T02:38:24.445Z,0.40
2019-04-29T02:39:24.462Z,0.80
2019-04-29T02:40:28.105Z,0.50
2019-04-29T02:41:29.812Z,0.70
2019-04-29T02:42:24.360Z,0.70
2019-04-29T02:43:24.294Z,0.60
2019-04-29T02:44:24.251Z,0.70
2019-04-29T02:47:24.218Z,0.70
2019-04-29T02:48:28.439Z,0.70
2019-04-29T02:49:24.129Z,0.60
2019-04-29T02:50:24.075Z,0.70
2019-04-29T02:51:24.032Z,0.70
2019-04-29T02:52:24.021Z,0.60
2019-04-29T02:53:28.053Z,0.80
2019-04-29T02:54:23.952Z,0.60
2019-04-29T02:55:23.922Z,0.50
2019-04-29T02:56:23.898Z,0.70
2019-04-29T02:57:23.853Z,0.60
2019-04-29T02:58:57.035Z,0.60
2019-04-29T02:59:23.794Z,0.00
2019-04-29T03:00:23.749Z,0.40
2019-04-29T03:01:23.706Z,0.70
2019-04-29T03:02:23.913Z,0.50
2019-04-29T03:03:23.690Z,0.50
2019-04-29T03:04:27.544Z,0.60
2019-04-29T03:05:23.595Z,0.60
2019-04-29T03:06:23.577Z,0.60
2019-04-29T03:07:23.702Z,0.50
2019-04-29T03:08:23.506Z,0.50
2019-04-29T03:09:23.423Z,0.40
2019-04-29T03:10:23.409Z,0.50
2019-04-29T03:11:23.411Z,0.60
2019-04-29T03:12:23.388Z,0.40
2019-04-29T03:13:23.367Z,0.80
2019-04-29T03:14:23.315Z,0.40
2019-04-29T03:15:23.272Z,0.60
2019-04-29T03:16:23.351Z,0.80
2019-04-29T03:18:23.192Z,0.80
2019-04-29T03:19:23.133Z,0.80
2019-04-29T03:23:56.241Z,0.00
2019-04-29T03:24:29.150Z,0.00
2019-04-29T03:25:22.935Z,0.00
2019-04-29T03:26:22.907Z,0.50
2019-04-29T03:27:22.906Z,0.70
2019-04-29T03:28:22.889Z,0.60
2019-04-29T03:29:22.807Z,0.40
2019-04-29T03:30:22.833Z,0.80
2019-04-29T03:31:22.750Z,0.40
2019-04-29T03:32:22.719Z,0.50
2019-04-29T03:34:22.665Z,0.70
2019-04-29T03:35:22.582Z,0.80
2019-04-29T03:36:22.582Z,0.80
2019-04-29T03:37:22.558Z,0.50
2019-04-29T03:38:22.536Z,0.70
2019-04-29T03:40:29.421Z,0.00
2019-04-29T03:41:22.425Z,0.00
2019-04-29T03:42:22.437Z,0.70
2019-04-29T03:43:45.087Z,0.60
2019-04-29T03:44:22.335Z,0.00
2019-04-29T03:46:25.977Z,0.80
2019-04-29T03:47:27.130Z,0.50
2019-04-29T03:48:22.200Z,0.60
2019-04-29T03:49:22.154Z,0.60
2019-04-29T03:50:22.139Z,0.80
2019-04-29T03:51:22.128Z,0.60
2019-04-29T03:52:22.045Z,0.70
2019-04-29T03:53:22.029Z,0.70
2019-04-29T03:54:21.983Z,0.50
2019-04-29T03:56:21.942Z,0.80
2019-04-29T03:57:21.869Z,0.50
2019-04-29T03:58:21.874Z,0.70
2019-04-29T03:59:21.855Z,0.80
2019-04-29T04:00:21.842Z,0.40
2019-04-29T04:01:21.751Z,0.50
2019-04-29T04:02:21.762Z,0.60
2019-04-29T04:03:21.705Z,0.50
2019-04-29T04:04:21.698Z,0.70
2019-04-29T04:05:21.722Z,0.70
2019-04-29T04:06:21.614Z,0.60
2019-04-29T04:07:21.567Z,0.80
2019-04-29T04:08:21.515Z,0.60
2019-04-29T04:09:21.509Z,0.70
2019-04-29T04:10:21.466Z,0.80
2019-04-29T04:11:21.661Z,0.60
2019-04-29T04:12:21.389Z,0.60
2019-04-29T04:13:21.429Z,0.80
2019-04-29T04:14:21.331Z,0.60
2019-04-29T04:15:21.421Z,0.60
2019-04-29T04:16:24.991Z,0.80
2019-04-29T04:17:21.262Z,0.70
2019-04-29T04:19:21.197Z,0.60
2019-04-29T04:20:50.300Z,0.50
2019-04-29T04:21:21.119Z,0.00
2019-04-29T04:22:21.096Z,0.70
2019-04-29T04:23:21.053Z,0.60
2019-04-29T04:24:21.024Z,0.80
2019-04-29T04:25:21.013Z,0.70
2019-04-29T04:26:20.981Z,0.60
2019-04-29T04:27:20.914Z,0.70
2019-04-29T04:28:20.946Z,0.60
2019-04-29T04:29:20.880Z,0.60
2019-04-29T04:30:20.890Z,0.60
2019-04-29T04:31:20.766Z,0.60
2019-04-29T04:32:20.757Z,0.70
2019-04-29T04:33:20.728Z,0.80
2019-04-29T04:34:20.661Z,0.60
2019-04-29T04:36:20.623Z,0.60
2019-04-29T04:37:20.664Z,0.50
2019-04-29T04:38:20.571Z,0.60
2019-04-29T04:39:20.544Z,0.80
2019-04-29T04:40:20.472Z,0.50
2019-04-29T04:41:20.433Z,0.80
2019-04-29T04:42:20.412Z,0.50
2019-04-29T04:43:23.720Z,0.50
2019-04-29T04:44:20.351Z,0.60
2019-04-29T04:45:20.342Z,0.70
2019-04-29T04:46:20.287Z,0.60
2019-04-29T04:47:20.354Z,0.80
2019-04-29T04:48:20.232Z,0.60
2019-04-29T04:49:20.184Z,0.60
2019-04-29T04:50:20.136Z,0.70
2019-04-29T04:51:20.119Z,0.70
2019-04-29T04:52:20.070Z,0.40
2019-04-29T04:53:20.045Z,0.70
2019-04-29T04:54:19.992Z,0.70
2019-04-29T04:55:20.009Z,0.40
2019-04-29T04:56:19.949Z,0.70
2019-04-29T04:57:19.867Z,0.70
2019-04-29T04:58:19.880Z,0.60
2019-04-29T04:59:19.811Z,0.50
2019-04-29T05:00:20.269Z,0.60
2019-04-29T05:01:19.769Z,0.60
2019-04-29T05:02:19.734Z,0.70
2019-04-29T05:03:19.843Z,0.60
2019-04-29T05:04:19.635Z,0.60
2019-04-29T05:05:19.617Z,0.80
2019-04-29T05:06:19.565Z,0.60
2019-04-29T05:07:19.533Z,0.50
2019-04-29T05:08:19.526Z,0.70
2019-04-29T05:09:19.471Z,0.60
2019-04-29T05:10:19.438Z,0.70
2019-04-29T05:11:19.423Z,0.80
2019-04-29T05:12:19.376Z,0.60
2019-04-29T05:13:28.021Z,0.70
2019-04-29T05:14:19.314Z,0.80
2019-04-29T05:15:19.290Z,0.50
2019-04-29T05:16:19.241Z,0.80
2019-04-29T05:17:19.237Z,0.70
2019-04-29T05:18:19.192Z,0.40
2019-04-29T05:19:19.173Z,0.80
2019-04-29T05:20:19.107Z,0.80
2019-04-29T05:21:19.075Z,0.60
2019-04-29T05:22:19.063Z,0.80
2019-04-29T05:23:19.040Z,0.80
2019-04-29T05:24:18.979Z,0.60
2019-04-29T05:25:18.959Z,0.60
2019-04-29T05:26:18.907Z,0.80
2019-04-29T05:27:18.947Z,0.50
2019-04-29T05:28:18.850Z,0.80
2019-04-29T05:29:18.830Z,0.80
2019-04-29T05:30:18.787Z,0.60
2019-04-29T05:31:18.768Z,0.80
2019-04-29T05:32:18.735Z,0.80
2019-04-29T05:33:18.681Z,0.60
2019-04-29T05:34:18.670Z,0.80
2019-04-29T05:35:20.845Z,0.80
2019-04-29T05:36:18.586Z,0.60
2019-04-29T05:37:18.568Z,0.50
2019-04-29T05:38:18.543Z,0.80
2019-04-29T05:39:18.504Z,0.60
2019-04-29T05:40:18.475Z,0.70
2019-04-29T05:41:18.615Z,0.70
2019-04-29T05:42:18.420Z,0.50
2019-04-29T05:43:18.351Z,0.70
2019-04-29T05:44:19.130Z,0.70
2019-04-29T05:45:18.291Z,0.60
2019-04-29T05:46:21.627Z,0.80
2019-04-29T05:47:18.224Z,0.70
2019-04-29T05:48:18.186Z,0.60
2019-04-29T05:49:18.198Z,0.80
2019-04-29T05:50:18.474Z,0.60
2019-04-29T05:51:18.113Z,0.60
2019-04-29T05:52:18.055Z,0.70
2019-04-29T05:53:18.043Z,0.60
2019-04-29T05:54:17.990Z,0.60
2019-04-29T05:55:17.976Z,0.80
2019-04-29T05:56:17.950Z,0.60
2019-04-29T05:57:20.454Z,0.80
2019-04-29T05:58:17.882Z,0.80
2019-04-29T05:59:17.846Z,0.60
2019-04-29T06:00:18.877Z,0.60
2019-04-29T06:01:17.763Z,0.80
2019-04-29T06:02:17.747Z,0.60
2019-04-29T06:03:17.694Z,0.80
2019-04-29T06:04:18.238Z,0.80
2019-04-29T06:05:17.632Z,0.50
2019-04-29T06:06:17.622Z,0.80
2019-04-29T06:07:21.523Z,0.80
2019-04-29T06:08:17.534Z,0.60
2019-04-29T06:09:18.452Z,0.70
2019-04-29T06:10:18.193Z,0.70
2019-04-29T06:11:17.435Z,0.60
2019-04-29T06:12:17.423Z,0.70
2019-04-29T06:13:17.488Z,0.60
2019-04-29T06:14:17.350Z,0.60
2019-04-29T06:15:17.320Z,0.70
2019-04-29T06:16:21.012Z,0.60
2019-04-29T06:17:17.260Z,0.60
2019-04-29T06:18:17.651Z,0.80
2019-04-29T06:19:17.167Z,0.60
2019-04-29T06:20:17.559Z,0.70
2019-04-29T06:21:17.118Z,0.80
2019-04-29T06:22:17.118Z,0.60
2019-04-29T06:23:18.943Z,0.80
2019-04-29T06:24:17.031Z,0.80
2019-04-29T06:25:16.998Z,0.60
2019-04-29T06:26:16.958Z,0.80
2019-04-29T06:27:16.905Z,0.80
2019-04-29T06:28:16.877Z,0.50
2019-04-29T06:30:16.807Z,0.00
2019-04-29T06:31:16.828Z,0.60
2019-04-29T06:32:20.176Z,0.80
2019-04-29T06:33:16.735Z,0.70
2019-04-29T06:34:16.829Z,0.50
2019-04-29T06:35:16.678Z,0.70
2019-04-29T06:36:16.627Z,0.70
2019-04-29T06:37:16.575Z,0.40
2019-04-29T06:38:16.549Z,0.70
2019-04-29T06:39:16.531Z,0.60
2019-04-29T06:40:16.655Z,0.60
2019-04-29T06:41:16.462Z,0.70
2019-04-29T06:42:19.637Z,0.60
2019-04-29T06:43:17.149Z,0.60
2019-04-29T06:44:16.928Z,0.80
2019-04-29T06:45:16.344Z,0.60
2019-04-29T06:46:16.290Z,0.60
2019-04-29T06:47:17.094Z,0.60
2019-04-29T06:48:16.246Z,0.60
2019-04-29T06:49:16.190Z,0.70
2019-04-29T06:50:16.168Z,0.80
2019-04-29T06:51:16.118Z,0.50
2019-04-29T06:52:16.099Z,0.70
2019-04-29T06:53:16.353Z,0.80
2019-04-29T06:54:16.044Z,0.60
2019-04-29T06:55:16.004Z,0.80
2019-04-29T06:56:15.973Z,0.70
2019-04-29T06:57:15.941Z,0.60
2019-04-29T06:58:15.923Z,0.50
2019-04-29T06:59:15.869Z,0.80
2019-04-29T07:00:17.669Z,0.50
2019-04-29T07:01:15.822Z,0.50
2019-04-29T07:02:16.097Z,0.80
2019-04-29T07:03:15.716Z,0.60
2019-04-29T07:04:15.684Z,0.80
2019-04-29T07:05:15.678Z,0.70
2019-04-29T07:06:15.919Z,0.60
2019-04-29T07:07:15.594Z,0.60
2019-04-29T07:08:15.556Z,0.80
2019-04-29T07:09:15.520Z,0.60
2019-04-29T07:10:16.471Z,0.80
2019-04-29T07:11:15.491Z,0.80
2019-04-29T07:12:15.628Z,0.60
2019-04-29T07:13:17.973Z,0.60
2019-04-29T07:14:15.377Z,0.80
2019-04-29T07:15:15.343Z,0.50
2019-04-29T07:16:17.008Z,0.80
2019-04-29T07:17:15.253Z,0.70
2019-04-29T07:18:15.242Z,0.50
2019-04-29T07:19:15.208Z,0.80
2019-04-29T07:20:15.187Z,0.70
2019-04-29T07:21:15.140Z,0.50
2019-04-29T07:22:15.087Z,0.80
2019-04-29T07:23:15.111Z,0.70
2019-04-29T07:24:15.047Z,0.60
2019-04-29T07:25:14.992Z,0.80
2019-04-29T07:26:14.992Z,0.60
2019-04-29T07:27:14.921Z,0.60
2019-04-29T07:28:18.322Z,0.80
2019-04-29T07:29:14.884Z,0.50
2019-04-29T07:30:14.846Z,0.60
2019-04-29T07:31:14.829Z,0.70
2019-04-29T07:32:14.757Z,0.60
2019-04-29T07:33:22.073Z,0.50
2019-04-29T07:34:14.739Z,0.70
2019-04-29T07:35:14.666Z,0.60
2019-04-29T07:36:18.518Z,0.60
2019-04-29T07:37:16.629Z,0.50
2019-04-29T07:38:14.584Z,0.60
2019-04-29T07:39:14.552Z,0.60
2019-04-29T07:40:14.495Z,0.80
2019-04-29T07:41:18.865Z,0.60
2019-04-29T07:42:14.424Z,0.70
2019-04-29T07:43:14.420Z,0.80
2019-04-29T07:44:18.363Z,0.50
2019-04-29T07:45:14.326Z,0.70
2019-04-29T07:46:16.385Z,0.80
2019-04-29T07:47:14.291Z,0.60
2019-04-29T07:48:14.230Z,0.80
2019-04-29T07:49:17.178Z,0.80
2019-04-29T07:50:14.210Z,0.60
2019-04-29T07:51:14.150Z,0.50
2019-04-29T07:52:14.558Z,0.80
2019-04-29T07:53:14.083Z,0.60
2019-04-29T07:54:16.017Z,0.80
2019-04-29T07:55:13.997Z,0.80
2019-04-29T07:56:13.998Z,0.60
2019-04-29T07:57:16.465Z,0.80
2019-04-29T07:58:13.922Z,0.80
2019-04-29T07:59:13.889Z,0.50
2019-04-29T08:00:14.636Z,0.80
2019-04-29T08:01:13.810Z,0.80
2019-04-29T08:02:13.760Z,0.60
2019-04-29T08:03:13.753Z,0.50
2019-04-29T08:04:13.716Z,0.80
2019-04-29T08:05:13.942Z,0.50
2019-04-29T08:06:13.666Z,0.60
2019-04-29T08:07:13.593Z,0.80
2019-04-29T08:08:16.804Z,0.60
2019-04-29T08:09:13.536Z,0.80
2019-04-29T08:10:23.288Z,0.80
2019-04-29T08:11:13.658Z,0.60
2019-04-29T08:12:13.448Z,0.60
2019-04-29T08:13:13.418Z,0.80
2019-04-29T08:14:13.388Z,0.50
2019-04-29T08:15:13.349Z,0.80
2019-04-29T08:16:17.199Z,0.80
2019-04-29T08:17:13.365Z,0.60
2019-04-29T08:18:16.717Z,0.50
2019-04-29T08:19:13.199Z,0.50
2019-04-29T08:20:13.186Z,0.50
2019-04-29T08:21:14.450Z,0.80
2019-04-29T08:22:16.405Z,0.80
2019-04-29T08:23:13.065Z,0.50
2019-04-29T08:24:15.907Z,0.80
2019-04-29T08:25:13.017Z,0.80
2019-04-29T08:26:12.981Z,0.60
2019-04-29T08:27:12.948Z,0.80
2019-04-29T08:28:12.918Z,0.80
2019-04-29T08:29:12.883Z,0.60
2019-04-29T08:30:12.851Z,0.80
2019-04-29T08:31:16.642Z,0.90
2019-04-29T08:32:12.948Z,0.60
2019-04-29T08:33:13.270Z,0.70
2019-04-29T08:34:12.736Z,0.50
2019-04-29T08:35:12.671Z,0.60
2019-04-29T08:36:12.660Z,0.80
2019-04-29T08:37:12.593Z,0.80
2019-04-29T08:38:12.710Z,0.60
2019-04-29T08:39:12.590Z,0.80
2019-04-29T08:40:16.222Z,0.80
2019-04-29T08:41:12.469Z,0.50
2019-04-29T08:42:12.428Z,0.70
2019-04-29T08:43:15.856Z,0.70
2019-04-29T08:44:16.323Z,0.60
2019-04-29T08:45:12.358Z,0.60
2019-04-29T08:46:12.327Z,0.70
2019-04-29T08:47:12.260Z,0.60
2019-04-29T08:48:12.252Z,0.80
2019-04-29T08:49:14.737Z,0.50
2019-04-29T08:50:12.182Z,0.60
2019-04-29T08:51:12.134Z,0.80
2019-04-29T08:52:12.147Z,0.60
2019-04-29T08:53:12.100Z,0.60
2019-04-29T08:54:15.791Z,0.80
2019-04-29T08:55:12.016Z,0.60
2019-04-29T08:56:12.092Z,0.60
2019-04-29T08:57:11.944Z,0.80
2019-04-29T08:58:12.894Z,0.70
2019-04-29T08:59:11.887Z,0.60
2019-04-29T09:00:11.848Z,0.60
2019-04-29T09:01:11.802Z,0.70
2019-04-29T09:02:11.784Z,0.60
2019-04-29T09:03:11.765Z,0.80
2019-04-29T09:04:11.870Z,0.80
2019-04-29T09:05:13.173Z,0.60
2019-04-29T09:06:11.631Z,0.80
2019-04-29T09:07:12.882Z,0.70
2019-04-29T09:08:13.417Z,0.60
2019-04-29T09:09:28.084Z,0.80
2019-04-29T09:10:11.741Z,0.50
2019-04-29T09:11:13.036Z,0.60
2019-04-29T09:12:11.424Z,0.80
2019-04-29T09:13:11.410Z,0.70
2019-04-29T09:14:12.923Z,0.60
2019-04-29T09:15:11.326Z,0.80
2019-04-29T09:16:11.295Z,0.70
2019-04-29T09:17:20.119Z,0.60
2019-04-29T09:18:11.403Z,0.80
2019-04-29T09:19:11.213Z,0.80
2019-04-29T09:20:11.180Z,0.50
2019-04-29T09:21:11.144Z,0.60
2019-04-29T09:22:11.089Z,0.80
2019-04-29T09:23:11.085Z,0.60
2019-04-29T09:24:11.056Z,0.80
2019-04-29T09:25:11.111Z,0.80
2019-04-29T09:26:10.952Z,0.60
2019-04-29T09:27:11.286Z,0.60
2019-04-29T09:28:14.930Z,0.70
2019-04-29T09:29:10.856Z,0.60
2019-04-29T09:30:10.825Z,0.80
2019-04-29T09:31:10.817Z,0.70
2019-04-29T09:32:10.755Z,0.50
2019-04-29T09:33:13.078Z,0.80
2019-04-29T09:34:10.707Z,0.70
2019-04-29T09:35:10.679Z,0.70
2019-04-29T09:36:13.791Z,0.60
2019-04-29T09:37:10.601Z,0.70
2019-04-29T09:38:10.618Z,0.60
2019-04-29T09:39:10.538Z,0.80
2019-04-29T09:40:10.502Z,0.70
2019-04-29T09:41:10.465Z,0.50
2019-04-29T09:42:13.246Z,0.80
2019-04-29T09:43:15.743Z,0.80
2019-04-29T09:44:10.348Z,0.60
2019-04-29T09:45:10.341Z,0.70
2019-04-29T09:46:10.301Z,0.70
2019-04-29T09:47:10.331Z,0.60
2019-04-29T09:48:10.226Z,0.80
2019-04-29T09:49:10.207Z,0.60
2019-04-29T09:50:10.158Z,0.60
2019-04-29T09:51:17.296Z,0.70
2019-04-29T09:52:10.102Z,0.60
2019-04-29T09:53:10.074Z,0.60
2019-04-29T09:54:14.491Z,0.50
2019-04-29T09:55:10.040Z,0.60
2019-04-29T09:56:10.017Z,0.70
2019-04-29T09:57:10.264Z,0.80
2019-04-29T09:58:09.923Z,0.50
2019-04-29T09:59:09.862Z,0.80
2019-04-29T10:00:09.864Z,0.80
2019-04-29T10:01:13.750Z,0.60
2019-04-29T10:02:09.827Z,0.70
2019-04-29T10:03:09.910Z,0.50
2019-04-29T10:04:09.720Z,0.50
2019-04-29T10:05:09.686Z,0.70
2019-04-29T10:06:12.383Z,0.50
2019-04-29T10:07:09.630Z,0.60
2019-04-29T10:08:09.659Z,0.70
2019-04-29T10:09:09.699Z,0.40
2019-04-29T10:10:09.514Z,0.60
2019-04-29T10:11:09.480Z,0.60
2019-04-29T10:12:09.473Z,0.50
2019-04-29T10:13:09.432Z,0.50
2019-04-29T10:14:09.565Z,0.50
2019-04-29T10:15:09.355Z,0.30
2019-04-29T10:16:09.324Z,0.60
2019-04-29T10:17:11.252Z,0.50
2019-04-29T10:18:09.261Z,0.40
2019-04-29T10:19:09.230Z,0.40
2019-04-29T10:20:09.221Z,0.70
2019-04-29T10:21:09.189Z,0.60
2019-04-29T10:22:09.151Z,0.50
2019-04-29T10:23:09.156Z,0.40
2019-04-29T10:25:09.050Z,0.00
2019-04-29T10:26:09.045Z,0.40
2019-04-29T10:27:09.000Z,0.60
2019-04-29T10:28:09.008Z,0.40
2019-04-29T10:29:08.925Z,0.30
2019-04-29T10:30:08.901Z,0.60
2019-04-29T10:31:08.870Z,0.50
2019-04-29T10:32:08.843Z,0.60
2019-04-29T10:33:12.841Z,0.40
2019-04-29T10:34:08.769Z,0.60
2019-04-29T10:35:10.532Z,0.50
2019-04-29T10:36:08.728Z,0.40
2019-04-29T10:37:08.698Z,0.40
2019-04-29T10:38:08.643Z,0.30
2019-04-29T10:39:08.625Z,0.50
2019-04-29T10:40:11.451Z,0.30
2019-04-29T10:41:08.572Z,0.40
2019-04-29T10:42:08.547Z,0.30
2019-04-29T10:43:11.339Z,0.40
2019-04-29T10:44:08.473Z,0.40
2019-04-29T10:45:08.436Z,0.40
2019-04-29T10:46:08.657Z,0.30
2019-04-29T10:47:08.374Z,0.40
2019-04-29T10:48:08.356Z,0.50
2019-04-29T10:49:08.344Z,0.50
2019-04-29T10:50:10.549Z,0.30
2019-04-29T10:51:08.264Z,0.50
2019-04-29T10:52:08.236Z,0.50
2019-04-29T10:53:11.073Z,0.60
2019-04-29T10:54:08.176Z,0.50
2019-04-29T10:55:08.147Z,0.50
2019-04-29T10:56:08.135Z,0.40
2019-04-29T10:57:10.601Z,0.50
2019-04-29T10:58:08.129Z,0.50
2019-04-29T10:59:09.085Z,0.50
2019-04-29T11:00:08.032Z,0.40
2019-04-29T11:01:07.995Z,0.60
2019-04-29T11:02:13.378Z,0.40
2019-04-29T11:03:07.929Z,0.40
2019-04-29T11:04:08.873Z,0.50
2019-04-29T11:05:11.481Z,0.60
2019-04-29T11:06:07.878Z,0.50
2019-04-29T11:07:14.117Z,0.50
2019-04-29T11:08:07.821Z,0.50
2019-04-29T11:09:09.601Z,0.40
2019-04-29T11:10:08.167Z,0.50
2019-04-29T11:11:07.695Z,0.50
2019-04-29T11:12:08.876Z,0.70
2019-04-29T11:13:07.911Z,0.50
2019-04-29T11:14:07.633Z,0.50
2019-04-29T11:15:09.863Z,0.70
2019-04-29T11:16:07.562Z,0.60
2019-04-29T11:17:16.225Z,0.80
2019-04-29T11:18:07.537Z,0.60
2019-04-29T11:19:07.480Z,0.90
2019-04-29T11:20:11.020Z,0.70
2019-04-29T11:21:08.926Z,0.70
2019-04-29T11:22:07.421Z,0.90
2019-04-29T11:23:09.141Z,0.80
2019-04-29T11:24:07.365Z,1.00
2019-04-29T11:25:07.351Z,0.70
2019-04-29T11:26:09.586Z,0.90
2019-04-29T11:27:11.906Z,1.00
2019-04-29T11:28:07.243Z,0.80
2019-04-29T11:29:09.319Z,0.90
2019-04-29T11:30:07.195Z,1.00
2019-04-29T11:31:09.782Z,0.90
2019-04-29T11:32:07.146Z,1.10
2019-04-29T11:33:07.152Z,1.00
2019-04-29T11:34:07.111Z,1.20
2019-04-29T11:35:07.063Z,1.20
2019-04-29T11:36:07.035Z,1.00
2019-04-29T11:37:07.031Z,1.20
2019-04-29T11:38:06.986Z,1.20
2019-04-29T11:39:09.171Z,1.20
2019-04-29T11:40:06.951Z,1.20
2019-04-29T11:41:06.923Z,1.20
2019-04-29T11:42:06.919Z,1.40
2019-04-29T11:43:10.841Z,1.30
2019-04-29T11:44:06.932Z,1.30
2019-04-29T11:45:06.831Z,1.40
2019-04-29T11:46:09.852Z,1.60
2019-04-29T11:47:06.769Z,1.60
2019-04-29T11:48:06.740Z,1.60
2019-04-29T11:49:06.728Z,1.70
2019-04-29T11:50:07.588Z,1.70
2019-04-29T11:51:06.680Z,1.70
2019-04-29T11:52:09.796Z,1.80
2019-04-29T11:53:06.642Z,1.70
2019-04-29T11:54:08.255Z,1.80
2019-04-29T11:55:06.576Z,2.00
2019-04-29T11:56:06.904Z,2.10
2019-04-29T11:57:06.538Z,2.20
2019-04-29T11:58:06.512Z,2.20
2019-04-29T11:59:06.552Z,2.30
2019-04-29T12:00:09.962Z,2.10
2019-04-29T12:01:08.377Z,2.60
2019-04-29T12:02:06.419Z,2.70
2019-04-29T12:03:06.420Z,2.50
2019-04-29T12:04:06.352Z,2.60
2019-04-29T12:05:08.642Z,2.60
2019-04-29T12:06:06.302Z,2.70
2019-04-29T12:07:06.330Z,2.80
2019-04-29T12:08:11.836Z,3.00
2019-04-29T12:09:06.783Z,2.90
2019-04-29T12:10:06.584Z,2.80
2019-04-29T12:11:07.539Z,3.20
2019-04-29T12:12:07.956Z,3.20
2019-04-29T12:13:06.182Z,3.40
2019-04-29T12:14:06.146Z,3.50
2019-04-29T12:15:08.993Z,3.40
2019-04-29T12:16:06.070Z,3.60
2019-04-29T12:17:06.074Z,3.50
2019-04-29T12:18:06.042Z,3.70
2019-04-29T12:19:06.031Z,3.90
2019-04-29T12:20:06.036Z,3.70
2019-04-29T12:21:06.004Z,3.70
2019-04-29T12:22:09.027Z,4.20
2019-04-29T12:23:05.945Z,4.50
2019-04-29T12:24:05.950Z,4.50
2019-04-29T12:25:06.133Z,4.50
2019-04-29T12:26:05.868Z,4.90
2019-04-29T12:27:06.004Z,4.80
2019-04-29T12:28:18.781Z,4.90
2019-04-29T12:29:05.785Z,4.90
2019-04-29T12:30:05.767Z,5.60
2019-04-29T12:31:10.055Z,5.50
2019-04-29T12:32:05.725Z,5.00
2019-04-29T12:33:06.123Z,4.00
2019-04-29T12:34:05.682Z,4.00
2019-04-29T12:35:05.680Z,4.60
2019-04-29T12:36:05.822Z,3.90
2019-04-29T12:37:05.608Z,4.30
2019-04-29T12:38:10.533Z,3.80
2019-04-29T12:39:05.625Z,3.70
2019-04-29T12:40:09.529Z,3.50
2019-04-29T12:41:05.609Z,3.70
2019-04-29T12:42:05.780Z,3.40
2019-04-29T12:43:05.533Z,2.70
2019-04-29T12:44:05.684Z,3.00
2019-04-29T12:45:18.718Z,3.10
2019-04-29T12:46:05.491Z,3.20
2019-04-29T12:47:05.469Z,2.40
2019-04-29T12:48:06.551Z,2.00
2019-04-29T12:49:08.534Z,1.90
2019-04-29T12:50:05.338Z,1.50
2019-04-29T12:51:05.317Z,1.40
2019-04-29T12:52:05.360Z,1.40
2019-04-29T12:53:05.318Z,1.30
2019-04-29T12:54:05.313Z,1.20
2019-04-29T12:55:19.659Z,1.20
2019-04-29T12:56:07.125Z,1.10
2019-04-29T12:57:05.227Z,1.00
2019-04-29T12:58:05.243Z,0.90
2019-04-29T12:59:05.225Z,0.80
2019-04-29T13:00:07.585Z,0.80
2019-04-29T13:01:06.023Z,0.90
2019-04-29T13:02:05.209Z,0.80
2019-04-29T13:03:05.374Z,0.80
2019-04-29T13:04:05.289Z,0.90
2019-04-29T13:05:05.021Z,0.80
2019-04-29T13:06:04.976Z,0.70
2019-04-29T13:07:06.833Z,0.70
2019-04-29T13:08:04.915Z,0.70
2019-04-29T13:09:17.353Z,0.70
2019-04-29T13:10:06.824Z,0.70
2019-04-29T13:11:04.849Z,0.90
2019-04-29T13:12:18.032Z,0.90
2019-04-29T13:13:04.828Z,1.00
2019-04-29T13:14:04.789Z,1.10
2019-04-29T13:15:07.970Z,1.10
2019-04-29T13:16:04.721Z,1.00
2019-04-29T13:17:14.522Z,1.40
2019-04-29T13:18:12.751Z,1.30
2019-04-29T13:19:11.663Z,1.50
2019-04-29T13:20:07.377Z,1.60
2019-04-29T13:21:10.217Z,1.50
2019-04-29T13:22:04.603Z,1.60
2019-04-29T13:23:17.692Z,1.60
2019-04-29T13:24:13.485Z,1.50
2019-04-29T13:25:04.527Z,1.50
2019-04-29T13:26:04.517Z,1.60
2019-04-29T13:27:15.715Z,1.50
2019-04-29T13:28:05.230Z,1.60
2019-04-29T13:29:04.438Z,1.60
2019-04-29T13:30:06.649Z,1.40
2019-04-29T13:31:04.389Z,1.40
2019-04-29T13:32:04.354Z,1.20
2019-04-29T13:33:05.897Z,1.20
2019-04-29T13:34:22.405Z,1.20
2019-04-29T13:35:05.369Z,1.20
2019-04-29T13:36:04.274Z,1.00
2019-04-29T13:37:08.216Z,1.00
2019-04-29T13:38:04.586Z,1.10
2019-04-29T13:39:04.189Z,1.20
2019-04-29T13:40:04.200Z,1.20